Time;durP1;ratioP1;P1;durP2;ratioP2;P2;SDS_P1;SDS_P2;PMS_P1;PMS_P2;Temp;Humidity;BMP_temperature;BMP_pressure;BME280_temperature;BME280_humidity;BME280_pressure;Samples;Min_cycle;Max_cycle;Signal;HPM_P1;HPM_P2
2023/05/07 00:01:37;;;;;;;3.20;1.95;;;15.30;99.90;;;;;;5055654;28;20028;-68
2023/05/07 00:04:03;;;;;;;3.05;1.98;;;15.30;99.90;;;;;;5055373;28;20036;-69
2023/05/07 00:06:29;;;;;;;3.10;2.40;;;15.30;99.90;;;;;;5055435;28;20060;-69
2023/05/07 00:08:57;;;;;;;2.47;2.17;;;15.30;99.90;;;;;;5055054;28;20456;-69
2023/05/07 00:11:23;;;;;;;2.75;2.15;;;15.30;99.90;;;;;;5055502;28;20109;-69
2023/05/07 00:13:48;;;;;;;4.03;2.10;;;15.20;99.90;;;;;;5054970;28;20488;-69
2023/05/07 00:16:14;;;;;;;3.25;2.20;;;15.20;99.90;;;;;;5055180;28;20029;-69
2023/05/07 00:18:40;;;;;;;5.07;2.28;;;15.20;99.90;;;;;;5055128;28;20055;-70
2023/05/07 00:21:05;;;;;;;3.58;2.00;;;15.20;99.90;;;;;;5055424;28;20029;-69
2023/05/07 00:23:31;;;;;;;7.85;2.05;;;15.20;99.90;;;;;;5055214;28;20029;-69
2023/05/07 00:25:57;;;;;;;4.28;2.33;;;15.20;99.90;;;;;;5054446;28;20040;-69
2023/05/07 00:28:22;;;;;;;3.72;2.22;;;15.20;99.90;;;;;;5053691;28;20359;-69
2023/05/07 00:30:48;;;;;;;3.00;2.20;;;15.20;99.90;;;;;;5054681;28;20413;-68
2023/05/07 00:33:14;;;;;;;4.60;2.10;;;15.20;99.90;;;;;;5055046;28;20043;-69
2023/05/07 00:35:39;;;;;;;2.10;1.88;;;15.20;99.90;;;;;;5055018;28;20065;-70
2023/05/07 00:38:05;;;;;;;3.22;2.40;;;15.10;99.90;;;;;;5054802;28;20098;-69
2023/05/07 00:40:30;;;;;;;4.20;2.78;;;15.10;99.90;;;;;;5053911;28;20035;-68
2023/05/07 00:42:57;;;;;;;5.57;2.58;;;15.10;99.90;;;;;;5054738;28;20029;-69
2023/05/07 00:45:27;;;;;;;2.95;2.30;;;15.10;99.90;;;;;;5054363;28;20106;-69
2023/05/07 00:47:58;;;;;;;6.72;2.78;;;15.00;99.90;;;;;;5054377;28;20399;-69
2023/05/07 00:50:26;;;;;;;3.30;2.40;;;15.00;99.90;;;;;;5054733;28;20048;-69
2023/05/07 00:52:52;;;;;;;3.67;2.70;;;15.00;99.90;;;;;;5054328;28;20025;-70
2023/05/07 00:55:18;;;;;;;3.60;2.65;;;15.00;99.90;;;;;;5053116;28;20032;-69
2023/05/07 00:57:45;;;;;;;3.83;2.97;;;15.00;99.90;;;;;;5054196;28;20021;-70
2023/05/07 01:00:12;;;;;;;5.97;2.70;;;14.90;99.90;;;;;;5054249;28;20036;-69
2023/05/07 01:02:41;;;;;;;5.32;3.33;;;15.00;99.90;;;;;;5054116;28;20612;-69
2023/05/07 01:05:10;;;;;;;3.47;2.92;;;15.00;99.90;;;;;;5054022;28;20419;-70
2023/05/07 01:07:38;;;;;;;5.57;2.95;;;14.90;99.90;;;;;;5053229;28;20036;-69
2023/05/07 01:10:06;;;;;;;4.00;2.78;;;14.90;99.90;;;;;;5054077;28;20025;-69
2023/05/07 01:12:32;;;;;;;3.88;2.42;;;14.80;99.90;;;;;;5054251;28;20033;-69
2023/05/07 01:14:58;;;;;;;4.60;2.90;;;14.70;99.90;;;;;;5053985;28;20025;-69
2023/05/07 01:17:24;;;;;;;5.72;3.08;;;14.70;99.90;;;;;;5054332;28;20044;-69
2023/05/07 01:19:50;;;;;;;4.45;2.70;;;14.70;99.90;;;;;;5053846;28;20025;-70
2023/05/07 01:22:19;;;;;;;4.43;2.35;;;14.70;99.90;;;;;;5054139;28;20039;-70
2023/05/07 01:24:45;;;;;;;4.13;2.30;;;14.60;99.90;;;;;;5053422;28;20559;-74
2023/05/07 01:27:10;;;;;;;2.47;2.20;;;14.60;99.90;;;;;;5053975;28;20033;-70
2023/05/07 01:29:36;;;;;;;3.60;1.88;;;14.60;99.90;;;;;;5054068;28;20029;-69
2023/05/07 01:32:03;;;;;;;2.75;2.10;;;14.60;99.90;;;;;;5053772;28;20078;-70
2023/05/07 01:34:32;;;;;;;1.83;1.70;;;14.60;99.90;;;;;;5054005;28;20025;-70
2023/05/07 01:36:59;;;;;;;2.78;1.80;;;14.50;99.90;;;;;;5053404;28;20499;-70
2023/05/07 01:39:26;;;;;;;2.85;2.20;;;14.50;99.90;;;;;;5053796;28;20039;-69
2023/05/07 01:41:55;;;;;;;2.60;2.00;;;14.40;99.90;;;;;;5053326;28;20032;-70
2023/05/07 01:44:21;;;;;;;2.70;2.00;;;14.40;99.90;;;;;;5050964;28;20112;-71
2023/05/07 01:46:48;;;;;;;5.85;1.95;;;14.40;99.90;;;;;;5053313;28;20111;-71
2023/05/07 01:49:14;;;;;;;7.47;1.85;;;14.40;99.90;;;;;;5053811;28;20116;-70
2023/05/07 01:51:40;;;;;;;2.85;1.95;;;14.40;99.90;;;;;;5052580;28;20099;-69
2023/05/07 01:54:06;;;;;;;3.05;1.77;;;14.40;99.90;;;;;;5051832;28;20308;-70
2023/05/07 01:56:32;;;;;;;3.72;1.85;;;14.40;99.90;;;;;;5053421;28;20117;-69
2023/05/07 01:58:57;;;;;;;3.53;2.17;;;14.30;99.90;;;;;;5052824;28;20522;-69
2023/05/07 02:01:23;;;;;;;2.85;2.00;;;14.30;99.90;;;;;;5053848;28;20386;-70
2023/05/07 02:03:49;;;;;;;2.40;1.75;;;14.30;99.90;;;;;;5052871;28;20458;-70
2023/05/07 02:06:15;;;;;;;2.38;2.00;;;14.30;99.90;;;;;;5053176;28;20037;-69
2023/05/07 02:08:40;;;;;;;3.60;1.70;;;14.30;99.90;;;;;;5053262;28;20033;-69
2023/05/07 02:11:06;;;;;;;4.10;1.80;;;14.30;99.90;;;;;;5052849;28;20029;-69
2023/05/07 02:13:33;;;;;;;2.13;1.85;;;14.30;99.90;;;;;;5053299;28;20083;-69
2023/05/07 02:15:59;;;;;;;4.20;1.77;;;14.30;99.90;;;;;;5052751;28;20062;-69
2023/05/07 02:18:25;;;;;;;3.88;2.20;;;14.30;99.90;;;;;;5053345;28;20414;-69
2023/05/07 02:20:50;;;;;;;2.65;2.05;;;14.30;99.90;;;;;;5052279;28;20048;-70
2023/05/07 02:23:16;;;;;;;5.75;1.90;;;14.30;99.90;;;;;;5053134;28;20067;-69
2023/05/07 02:25:41;;;;;;;3.47;2.05;;;14.30;99.90;;;;;;5052873;28;20119;-69
2023/05/07 02:28:07;;;;;;;3.10;2.25;;;14.30;99.90;;;;;;5052552;28;20461;-69
2023/05/07 02:30:33;;;;;;;2.42;2.00;;;14.30;99.90;;;;;;5052851;28;20535;-69
2023/05/07 02:32:58;;;;;;;4.88;2.25;;;14.30;99.90;;;;;;5051874;28;20103;-69
2023/05/07 02:35:25;;;;;;;3.00;2.50;;;14.30;99.90;;;;;;5053293;28;20056;-69
2023/05/07 02:37:51;;;;;;;5.43;2.08;;;14.20;99.90;;;;;;5052359;28;20037;-69
2023/05/07 02:40:17;;;;;;;3.47;2.40;;;14.20;99.90;;;;;;5052447;28;20033;-69
2023/05/07 02:42:42;;;;;;;5.15;2.53;;;14.20;99.90;;;;;;5052743;28;20466;-69
2023/05/07 02:45:09;;;;;;;5.30;2.30;;;14.20;99.90;;;;;;5051949;28;20394;-69
2023/05/07 02:47:34;;;;;;;5.95;2.28;;;14.20;99.90;;;;;;5052239;28;20041;-69
2023/05/07 02:50:00;;;;;;;6.70;2.38;;;14.20;99.90;;;;;;5052203;28;20025;-69
2023/05/07 02:52:26;;;;;;;4.55;2.65;;;14.20;99.90;;;;;;5052663;28;20037;-69
2023/05/07 02:54:51;;;;;;;7.18;2.45;;;14.20;99.90;;;;;;5052122;28;20060;-70
2023/05/07 02:57:17;;;;;;;3.53;2.38;;;14.20;99.90;;;;;;5052794;28;20029;-69
2023/05/07 02:59:44;;;;;;;4.07;2.35;;;14.10;99.90;;;;;;5052637;28;20351;-69
2023/05/07 03:02:09;;;;;;;3.10;2.55;;;14.10;99.90;;;;;;5052570;28;20454;-69
2023/05/07 03:04:35;;;;;;;5.28;2.90;;;14.10;99.90;;;;;;5055366;28;20040;-69
2023/05/07 03:07:01;;;;;;;3.20;2.42;;;14.10;99.90;;;;;;5055956;28;20056;-70
2023/05/07 03:09:27;;;;;;;2.38;2.17;;;14.10;99.90;;;;;;5056613;28;20051;-69
2023/05/07 03:11:52;;;;;;;4.70;2.72;;;14.10;99.90;;;;;;5056199;28;20466;-73
2023/05/07 03:14:18;;;;;;;8.73;3.17;;;14.10;99.90;;;;;;5056528;28;20090;-69
2023/05/07 03:16:43;;;;;;;4.25;3.25;;;14.10;99.90;;;;;;5056249;28;20171;-69
2023/05/07 03:19:09;;;;;;;5.88;4.35;;;14.00;99.90;;;;;;5056315;28;20026;-69
2023/05/07 03:21:35;;;;;;;5.60;3.05;;;14.00;99.90;;;;;;5056310;28;20336;-69
2023/05/07 03:24:00;;;;;;;5.32;3.47;;;14.00;99.90;;;;;;5054614;28;20470;-69
2023/05/07 03:26:26;;;;;;;6.65;3.00;;;14.00;99.90;;;;;;5056357;28;20103;-70
2023/05/07 03:28:52;;;;;;;4.53;3.28;;;14.00;99.90;;;;;;5055952;28;20065;-69
2023/05/07 03:31:18;;;;;;;4.25;3.15;;;14.00;99.90;;;;;;5055733;28;20027;-69
2023/05/07 03:33:57;;;;;;;6.15;3.42;;;14.00;99.90;;;;;;5055887;28;20021;-69
2023/05/07 03:36:23;;;;;;;6.13;4.00;;;14.00;99.90;;;;;;5056165;28;20108;-69
2023/05/07 03:38:49;;;;;;;5.55;3.95;;;13.90;99.90;;;;;;5056045;28;20029;-69
2023/05/07 03:41:15;;;;;;;5.38;4.32;;;13.90;99.90;;;;;;5055304;28;20033;-69
2023/05/07 03:43:41;;;;;;;6.35;4.30;;;13.90;99.90;;;;;;5055236;28;20115;-70
2023/05/07 03:46:07;;;;;;;4.40;3.90;;;13.90;99.90;;;;;;5055668;28;20049;-69
2023/05/07 03:48:32;;;;;;;4.40;4.00;;;13.90;99.90;;;;;;5056202;28;20373;-68
2023/05/07 03:50:59;;;;;;;5.28;4.70;;;13.90;99.90;;;;;;5055421;28;20025;-69
2023/05/07 03:53:25;;;;;;;8.68;4.93;;;14.00;99.90;;;;;;5055695;28;20025;-69
2023/05/07 03:55:50;;;;;;;5.32;4.78;;;14.00;99.90;;;;;;5055402;28;20392;-69
2023/05/07 03:58:16;;;;;;;7.10;4.90;;;14.00;99.90;;;;;;5055285;28;20055;-69
2023/05/07 04:00:41;;;;;;;10.52;4.65;;;14.00;99.90;;;;;;5055958;28;20365;-69
2023/05/07 04:03:07;;;;;;;6.25;5.38;;;14.00;99.90;;;;;;5055250;28;20112;-69
2023/05/07 04:05:33;;;;;;;7.28;5.45;;;14.00;99.90;;;;;;5055513;28;20029;-69
2023/05/07 04:07:59;;;;;;;6.63;5.07;;;14.10;99.90;;;;;;5055108;28;20025;-70
2023/05/07 04:10:25;;;;;;;9.32;5.70;;;14.10;99.90;;;;;;5055734;28;20021;-70
2023/05/07 04:12:50;;;;;;;7.45;5.55;;;14.10;99.90;;;;;;5055070;28;20104;-70
2023/05/07 04:15:16;;;;;;;7.95;6.45;;;14.10;99.90;;;;;;5053566;28;20079;-69
2023/05/07 04:17:42;;;;;;;7.40;6.15;;;14.10;99.90;;;;;;5055208;28;20029;-69
2023/05/07 04:20:15;;;;;;;6.45;5.30;;;14.20;99.90;;;;;;5054905;28;20041;-70
2023/05/07 04:22:40;;;;;;;8.63;6.90;;;14.20;99.90;;;;;;5055276;28;20028;-70
2023/05/07 04:25:08;;;;;;;7.55;6.57;;;14.30;99.90;;;;;;5055044;28;20036;-70
2023/05/07 04:27:34;;;;;;;12.13;6.93;;;14.30;99.90;;;;;;5054976;28;20037;-69
2023/05/07 04:30:00;;;;;;;10.45;7.47;;;14.40;99.90;;;;;;5054462;28;20031;-70
2023/05/07 04:32:26;;;;;;;8.38;7.00;;;14.50;99.90;;;;;;5054967;28;20024;-69
2023/05/07 04:34:52;;;;;;;12.18;7.72;;;14.50;99.90;;;;;;5054799;28;20382;-70
2023/05/07 04:37:18;;;;;;;11.30;7.78;;;14.50;99.90;;;;;;5055217;28;20238;-69
2023/05/07 04:39:43;;;;;;;13.63;8.35;;;14.50;99.90;;;;;;5056437;28;20083;-70
2023/05/07 04:42:09;;;;;;;11.63;7.80;;;14.60;99.90;;;;;;5053662;28;20404;-70
2023/05/07 04:44:36;;;;;;;9.27;7.95;;;14.60;99.90;;;;;;5055582;28;20072;-70
2023/05/07 04:47:02;;;;;;;10.35;8.73;;;14.70;99.90;;;;;;5054458;28;20119;-70
2023/05/07 04:49:28;;;;;;;11.13;8.77;;;14.70;99.90;;;;;;5055041;28;20063;-71
2023/05/07 04:51:53;;;;;;;11.07;9.27;;;14.70;99.90;;;;;;5055007;28;20029;-70
2023/05/07 04:54:19;;;;;;;10.57;9.48;;;14.70;99.90;;;;;;5054328;28;20036;-68
2023/05/07 04:56:45;;;;;;;12.75;9.55;;;14.80;99.90;;;;;;5054807;28;20477;-69
2023/05/07 04:59:10;;;;;;;11.52;9.57;;;14.90;99.90;;;;;;5054133;28;20378;-70
2023/05/07 05:01:36;;;;;;;11.82;9.68;;;15.00;99.90;;;;;;5054202;28;20457;-69
2023/05/07 05:04:02;;;;;;;11.50;9.50;;;15.10;99.90;;;;;;5054017;28;20087;-70
2023/05/07 05:06:27;;;;;;;11.93;9.95;;;15.30;99.90;;;;;;5053005;28;20523;-69
2023/05/07 05:08:53;;;;;;;14.15;10.38;;;15.50;99.90;;;;;;5054447;28;20024;-69
2023/05/07 05:11:19;;;;;;;12.02;10.35;;;15.60;99.90;;;;;;5054224;28;20017;-69
2023/05/07 05:13:44;;;;;;;12.88;10.88;;;15.80;99.90;;;;;;5054295;28;20481;-69
2023/05/07 05:16:10;;;;;;;20.13;15.18;;;16.00;99.90;;;;;;5053867;28;20112;-69
2023/05/07 05:18:35;;;;;;;20.15;17.10;;;16.20;99.90;;;;;;5053934;28;20025;-69
2023/05/07 05:21:01;;;;;;;21.05;17.63;;;16.40;99.90;;;;;;5053931;28;20033;-76
2023/05/07 05:23:27;;;;;;;20.35;16.65;;;16.60;99.90;;;;;;5054022;28;20128;-69
2023/05/07 05:26:00;;;;;;;18.30;16.17;;;16.80;99.90;;;;;;5053422;28;20028;-69
2023/05/07 05:28:27;;;;;;;23.40;18.45;;;17.10;99.90;;;;;;5053526;28;20435;-69
2023/05/07 05:30:53;;;;;;;22.88;19.15;;;17.20;99.90;;;;;;5053860;28;20025;-69
2023/05/07 05:33:18;;;;;;;22.33;18.83;;;17.30;99.90;;;;;;5053366;28;20021;-69
2023/05/07 05:35:44;;;;;;;22.63;18.75;;;17.50;99.90;;;;;;5053939;28;20500;-69
2023/05/07 05:38:10;;;;;;;25.23;19.23;;;17.80;99.90;;;;;;5053477;28;20024;-68
2023/05/07 05:40:36;;;;;;;22.25;19.05;;;17.80;99.90;;;;;;5053755;28;20542;-68
2023/05/07 05:43:01;;;;;;;21.17;18.70;;;17.80;99.80;;;;;;5053699;28;20075;-68
2023/05/07 05:45:27;;;;;;;20.60;18.15;;;17.90;99.20;;;;;;5052525;28;20083;-69
2023/05/07 05:47:52;;;;;;;23.23;18.85;;;18.20;99.10;;;;;;5053587;28;20109;-68
2023/05/07 05:50:18;;;;;;;21.13;18.75;;;18.40;96.10;;;;;;5053165;28;20025;-69
2023/05/07 05:52:44;;;;;;;24.10;18.40;;;18.50;97.50;;;;;;5053658;28;20036;-68
2023/05/07 05:55:10;;;;;;;21.60;16.58;;;19.00;95.90;;;;;;5052727;28;20377;-69
2023/05/07 05:57:35;;;;;;;19.05;16.20;;;19.30;93.70;;;;;;5053497;28;20063;-68
2023/05/07 06:00:02;;;;;;;19.65;16.75;;;19.80;93.00;;;;;;5053237;28;20143;-69
2023/05/07 06:02:28;;;;;;;19.48;15.32;;;20.10;91.60;;;;;;5052917;28;20223;-69
2023/05/07 06:04:53;;;;;;;17.67;15.82;;;20.40;91.90;;;;;;5053349;28;20048;-69
2023/05/07 06:07:19;;;;;;;17.55;15.68;;;20.60;88.00;;;;;;5052492;28;20035;-69
2023/05/07 06:09:45;;;;;;;16.90;14.90;;;20.50;88.00;;;;;;5053206;28;20029;-69
2023/05/07 06:12:11;;;;;;;21.40;15.80;;;20.70;86.10;;;;;;5052796;28;20072;-69
2023/05/07 06:14:37;;;;;;;19.38;15.35;;;20.90;87.30;;;;;;5052813;28;20124;-69
2023/05/07 06:17:02;;;;;;;19.70;16.30;;;21.00;82.10;;;;;;5052575;28;20355;-69
2023/05/07 06:19:28;;;;;;;21.20;14.68;;;20.60;83.10;;;;;;5052399;28;20079;-69
2023/05/07 06:21:56;;;;;;;17.73;15.40;;;20.50;83.40;;;;;;5053049;28;20033;-69
2023/05/07 06:24:22;;;;;;;18.40;15.25;;;20.40;85.40;;;;;;5052438;28;20044;-69
2023/05/07 06:26:48;;;;;;;17.38;14.88;;;20.30;84.20;;;;;;5052821;28;20033;-69
2023/05/07 06:29:14;;;;;;;22.17;16.48;;;20.60;84.90;;;;;;5052658;28;20377;-69
2023/05/07 06:31:39;;;;;;;17.65;15.52;;;20.60;82.10;;;;;;5052627;28;20033;-69
2023/05/07 06:34:05;;;;;;;17.58;15.40;;;20.70;82.30;;;;;;5052778;28;20029;-69
2023/05/07 06:36:31;;;;;;;17.88;15.20;;;20.90;82.10;;;;;;5052108;28;20420;-69
2023/05/07 06:38:56;;;;;;;17.15;14.95;;;21.20;81.80;;;;;;5051635;28;20075;-70
2023/05/07 06:41:22;;;;;;;21.60;15.25;;;21.20;80.00;;;;;;5052345;28;20029;-70
2023/05/07 06:43:47;;;;;;;22.75;14.90;;;21.60;79.50;;;;;;5052720;28;20029;-69
2023/05/07 06:46:13;;;;;;;19.05;15.80;;;21.70;76.80;;;;;;5051821;28;20049;-70
2023/05/07 06:48:39;;;;;;;17.15;15.23;;;21.80;78.00;;;;;;5051324;28;20355;-69
2023/05/07 06:51:04;;;;;;;17.30;14.80;;;22.10;77.60;;;;;;5052459;28;20496;-70
2023/05/07 06:53:30;;;;;;;16.42;13.85;;;21.80;74.70;;;;;;5052107;28;20040;-69
2023/05/07 06:55:56;;;;;;;18.38;14.45;;;21.90;76.00;;;;;;5052554;28;20037;-69
2023/05/07 06:58:22;;;;;;;16.20;14.50;;;22.10;76.10;;;;;;5051836;28;20439;-69
2023/05/07 07:00:48;;;;;;;17.52;14.25;;;22.00;73.90;;;;;;5052738;28;20059;-69
2023/05/07 07:03:14;;;;;;;18.20;15.88;;;21.80;73.20;;;;;;5051945;28;20025;-69
2023/05/07 07:05:43;;;;;;;18.63;15.57;;;21.40;74.60;;;;;;5052494;28;20117;-70
2023/05/07 07:08:09;;;;;;;20.20;15.68;;;20.80;75.60;;;;;;5051880;28;20424;-78
2023/05/07 07:10:35;;;;;;;17.80;15.85;;;20.50;78.30;;;;;;5052818;28;20091;-68
2023/05/07 07:13:00;;;;;;;19.63;16.77;;;20.30;78.50;;;;;;5052285;28;20025;-68
2023/05/07 07:15:26;;;;;;;20.15;16.08;;;20.10;80.50;;;;;;5051993;28;20377;-68
2023/05/07 07:17:52;;;;;;;21.35;15.68;;;19.80;82.10;;;;;;5051994;28;20029;-68
2023/05/07 07:20:18;;;;;;;18.85;15.95;;;20.20;83.70;;;;;;5051923;28;20527;-69
2023/05/07 07:22:43;;;;;;;20.17;17.00;;;20.20;80.80;;;;;;5052012;28;20051;-68
2023/05/07 07:25:09;;;;;;;21.85;17.40;;;19.90;81.20;;;;;;5052094;28;20504;-70
2023/05/07 07:27:35;;;;;;;20.60;17.35;;;19.50;83.20;;;;;;5052124;28;20038;-69
2023/05/07 07:30:01;;;;;;;20.95;17.58;;;19.20;83.50;;;;;;5052230;28;20031;-69
2023/05/07 07:32:27;;;;;;;20.75;16.40;;;18.90;84.20;;;;;;5052029;28;20105;-69
2023/05/07 07:34:52;;;;;;;25.40;17.20;;;18.70;86.60;;;;;;5052248;28;20033;-67
2023/05/07 07:37:18;;;;;;;19.88;16.58;;;18.50;86.50;;;;;;5052009;28;20033;-69
2023/05/07 07:39:44;;;;;;;18.92;16.73;;;18.30;88.90;;;;;;5052224;28;20025;-70
2023/05/07 07:42:09;;;;;;;21.42;17.02;;;18.30;90.00;;;;;;5052256;28;20025;-68
2023/05/07 07:44:35;;;;;;;18.67;16.67;;;18.20;89.40;;;;;;5050359;28;20072;-69
2023/05/07 07:47:00;;;;;;;19.17;16.85;;;18.10;89.30;;;;;;5051668;28;20068;-70
2023/05/07 07:49:26;;;;;;;21.92;18.13;;;18.10;90.50;;;;;;5053931;28;20071;-69
2023/05/07 07:51:52;;;;;;;20.08;17.20;;;17.90;91.40;;;;;;5056141;28;20036;-69
2023/05/07 07:54:18;;;;;;;21.02;17.45;;;17.90;90.80;;;;;;5055523;28;20025;-70
2023/05/07 07:56:43;;;;;;;20.63;17.23;;;17.90;90.60;;;;;;5055507;28;20033;-70
2023/05/07 07:59:09;;;;;;;19.88;16.25;;;17.80;90.90;;;;;;5054485;28;20021;-69
2023/05/07 08:01:34;;;;;;;19.77;16.77;;;17.80;91.20;;;;;;5055332;28;20017;-69
2023/05/07 08:04:02;;;;;;;23.80;18.60;;;17.80;90.80;;;;;;5055323;28;20032;-69
2023/05/07 08:06:28;;;;;;;25.05;18.52;;;17.70;91.10;;;;;;5053910;28;20127;-69
2023/05/07 08:08:54;;;;;;;18.95;16.40;;;17.60;91.50;;;;;;5055819;28;20107;-69
2023/05/07 08:11:21;;;;;;;20.27;16.80;;;17.70;92.30;;;;;;5055036;28;20025;-70
2023/05/07 08:13:47;;;;;;;21.02;16.48;;;17.60;92.50;;;;;;5055213;28;20112;-69
2023/05/07 08:16:13;;;;;;;21.90;17.48;;;17.70;92.90;;;;;;5055078;28;20119;-69
2023/05/07 08:18:38;;;;;;;23.88;17.45;;;17.70;92.60;;;;;;5055313;28;20445;-68
2023/05/07 08:21:04;;;;;;;21.15;16.90;;;17.70;92.80;;;;;;5055268;28;20099;-69
2023/05/07 08:23:30;;;;;;;22.00;16.05;;;17.80;92.90;;;;;;5054776;28;20449;-69
2023/05/07 08:25:55;;;;;;;16.23;14.52;;;18.00;93.00;;;;;;5055249;28;20037;-68
2023/05/07 08:28:21;;;;;;;21.05;15.35;;;18.30;92.20;;;;;;5054768;28;20476;-68
2023/05/07 08:30:47;;;;;;;20.98;15.88;;;18.40;89.70;;;;;;5055042;28;20096;-68
2023/05/07 08:33:13;;;;;;;19.55;16.08;;;18.30;89.10;;;;;;5055007;28;20096;-69
2023/05/07 08:35:38;;;;;;;21.25;16.38;;;18.10;89.30;;;;;;5053054;28;20454;-68
2023/05/07 08:38:04;;;;;;;19.55;16.35;;;18.10;90.30;;;;;;5054894;28;20397;-68
2023/05/07 08:40:36;;;;;;;19.92;14.93;;;18.20;90.70;;;;;;5054514;28;20021;-68
2023/05/07 08:43:05;;;;;;;15.45;13.45;;;18.30;90.50;;;;;;5053500;28;20025;-69
2023/05/07 08:45:32;;;;;;;15.95;12.90;;;18.50;90.40;;;;;;5054017;28;20059;-68
2023/05/07 08:48:10;;;;;;;17.83;13.48;;;18.70;87.30;;;;;;5053816;28;20025;-69
2023/05/07 08:50:36;;;;;;;16.05;12.60;;;18.70;84.80;;;;;;5054421;28;20028;-68
2023/05/07 08:53:05;;;;;;;15.32;13.60;;;18.80;84.90;;;;;;5054653;28;20028;-68
2023/05/07 08:55:31;;;;;;;18.50;14.65;;;18.80;84.00;;;;;;5054077;28;20025;-69
2023/05/07 08:57:56;;;;;;;16.17;13.82;;;19.00;85.10;;;;;;5054548;28;20090;-69
2023/05/07 09:00:22;;;;;;;17.23;13.63;;;18.90;85.50;;;;;;5053593;28;20025;-69
2023/05/07 09:02:48;;;;;;;18.20;14.68;;;19.00;84.90;;;;;;5054745;28;20029;-69
2023/05/07 09:05:13;;;;;;;17.02;14.63;;;19.00;85.10;;;;;;5054502;28;20452;-69
2023/05/07 09:07:39;;;;;;;17.58;13.95;;;18.70;86.80;;;;;;5053559;28;20032;-69
2023/05/07 09:10:06;;;;;;;17.35;14.38;;;18.90;88.10;;;;;;5054300;28;20044;-69
2023/05/07 09:12:32;;;;;;;19.13;14.65;;;18.90;86.00;;;;;;5053922;28;20533;-69
2023/05/07 09:14:59;;;;;;;20.77;13.45;;;18.90;84.80;;;;;;5053972;28;20157;-69
2023/05/07 09:17:24;;;;;;;16.42;13.80;;;18.90;84.40;;;;;;5053826;28;20158;-68
2023/05/07 09:19:50;;;;;;;15.20;13.25;;;19.00;84.00;;;;;;5054027;28;20492;-68
2023/05/07 09:22:16;;;;;;;14.75;12.07;;;19.20;85.50;;;;;;5052881;28;20028;-69
2023/05/07 09:24:50;;;;;;;17.45;12.40;;;19.40;84.10;;;;;;5053746;28;20099;-69
2023/05/07 09:27:17;;;;;;;17.45;12.23;;;19.50;82.60;;;;;;5054340;28;20496;-69
2023/05/07 09:29:44;;;;;;;15.20;11.63;;;19.50;81.00;;;;;;5052419;28;20025;-69
2023/05/07 09:32:10;;;;;;;13.23;10.98;;;19.70;81.80;;;;;;5054107;28;20025;-69
2023/05/07 09:34:36;;;;;;;13.52;11.50;;;19.80;80.20;;;;;;5053613;28;20021;-70
2023/05/07 09:37:07;;;;;;;13.93;11.77;;;19.70;78.90;;;;;;5053846;28;20031;-69
2023/05/07 09:39:43;;;;;;;13.63;11.20;;;19.70;78.60;;;;;;5053338;28;20025;-70
2023/05/07 09:42:09;;;;;;;12.10;9.70;;;19.70;79.70;;;;;;5053897;28;20029;-70
2023/05/07 09:44:36;;;;;;;11.45;9.13;;;19.90;79.00;;;;;;5053191;28;20377;-69
2023/05/07 09:47:05;;;;;;;12.32;10.07;;;20.10;79.50;;;;;;5053866;28;20044;-69
2023/05/07 09:49:36;;;;;;;10.25;9.15;;;20.20;77.70;;;;;;5052963;28;20053;-70
2023/05/07 09:52:06;;;;;;;11.68;8.95;;;20.30;75.30;;;;;;5051690;28;20480;-69
2023/05/07 09:54:33;;;;;;;13.45;10.57;;;20.30;74.40;;;;;;5053199;28;20029;-69
2023/05/07 09:57:02;;;;;;;13.27;10.48;;;20.30;73.70;;;;;;5053503;28;20060;-69
2023/05/07 09:59:29;;;;;;;12.63;10.70;;;20.30;74.50;;;;;;5053048;28;20033;-68
2023/05/07 10:01:58;;;;;;;15.18;10.82;;;20.20;75.40;;;;;;5053403;28;20025;-69
2023/05/07 10:04:25;;;;;;;11.77;10.07;;;20.40;75.50;;;;;;5053043;28;20032;-68
2023/05/07 10:06:50;;;;;;;15.07;10.98;;;20.40;75.70;;;;;;5052943;28;20035;-68
2023/05/07 10:09:16;;;;;;;11.40;9.30;;;20.40;74.50;;;;;;5053406;28;20120;-69
2023/05/07 10:11:43;;;;;;;12.63;10.38;;;20.50;75.60;;;;;;5051922;28;20091;-69
2023/05/07 10:14:10;;;;;;;11.45;9.75;;;20.70;74.90;;;;;;5052844;28;20021;-69
2023/05/07 10:16:37;;;;;;;12.18;10.10;;;20.80;73.80;;;;;;5052747;28;20193;-69
2023/05/07 10:19:09;;;;;;;12.80;9.82;;;20.80;73.70;;;;;;5053090;28;20029;-69
2023/05/07 10:21:41;;;;;;;14.93;9.93;;;20.70;73.20;;;;;;5052516;28;20025;-69
2023/05/07 10:24:19;;;;;;;12.90;10.50;;;20.70;74.90;;;;;;5053603;28;20059;-69
2023/05/07 10:26:48;;;;;;;12.93;9.70;;;20.70;73.40;;;;;;5053258;28;20119;-69
2023/05/07 10:29:34;;;;;;;11.95;10.25;;;20.80;74.60;;;;;;5054906;28;20031;-69
2023/05/07 10:32:38;;;;;;;13.68;10.32;;;20.90;73.50;;;;;;5048758;28;20037;-69
2023/05/07 10:35:07;;;;;;;12.20;9.85;;;21.10;72.90;;;;;;5052886;28;20501;-69
2023/05/07 10:37:33;;;;;;;13.50;10.30;;;21.10;72.60;;;;;;5052359;28;20033;-70
2023/05/07 10:39:59;;;;;;;13.13;10.70;;;21.10;72.80;;;;;;5053030;28;20021;-70
2023/05/07 10:42:25;;;;;;;14.02;11.02;;;21.10;72.10;;;;;;5052336;28;20025;-71
2023/05/07 10:44:50;;;;;;;10.50;8.95;;;21.00;75.30;;;;;;5052209;28;20535;-69
2023/05/07 10:47:18;;;;;;;15.30;9.80;;;21.20;75.10;;;;;;5052721;28;20034;-68
2023/05/07 10:49:44;;;;;;;12.25;9.60;;;21.40;73.50;;;;;;5052055;28;20973;-71
2023/05/07 10:52:14;;;;;;;11.65;10.07;;;21.50;71.90;;;;;;5051516;28;20029;-68
2023/05/07 10:54:40;;;;;;;13.73;9.90;;;21.50;71.40;;;;;;5052321;28;20036;-69
2023/05/07 10:57:36;;;;;;;11.70;9.90;;;21.50;71.70;;;;;;5052798;28;20041;-68
2023/05/07 11:00:21;;;;;;;12.65;10.25;;;21.70;71.80;;;;;;5052527;28;20052;-68
2023/05/07 11:02:59;;;;;;;12.75;11.25;;;21.80;70.90;;;;;;5052334;28;20025;-67
2023/05/07 11:05:26;;;;;;;11.90;9.55;;;21.60;70.80;;;;;;5052548;28;20025;-68
2023/05/07 11:07:59;;;;;;;12.95;10.65;;;21.70;73.10;;;;;;5052370;28;20481;-69
2023/05/07 11:10:48;;;;;;;13.15;10.40;;;21.60;71.30;;;;;;5052599;28;20110;-69
2023/05/07 11:13:14;;;;;;;10.73;9.15;;;21.80;71.60;;;;;;5052347;28;20021;-69
2023/05/07 11:15:43;;;;;;;13.30;10.05;;;21.90;71.50;;;;;;5051946;28;20036;-70
2023/05/07 11:18:10;;;;;;;11.65;9.18;;;21.90;70.80;;;;;;5052165;28;20056;-69
2023/05/07 11:20:52;;;;;;;13.25;10.57;;;22.00;70.30;;;;;;5051615;28;20358;-70
2023/05/07 11:23:37;;;;;;;12.48;9.57;;;22.10;69.50;;;;;;5052862;28;20025;-69
2023/05/07 11:26:03;;;;;;;11.15;9.38;;;21.90;68.70;;;;;;5056177;28;20078;-69
2023/05/07 11:28:31;;;;;;;12.90;10.38;;;21.70;67.80;;;;;;5055544;28;20033;-70
2023/05/07 11:30:57;;;;;;;10.77;9.05;;;21.50;68.10;;;;;;5056189;28;20032;-68
2023/05/07 11:33:25;;;;;;;12.05;9.82;;;21.40;69.40;;;;;;5056139;28;20049;-69
2023/05/07 11:35:53;;;;;;;11.23;9.60;;;21.30;69.80;;;;;;5055679;28;20370;-68
2023/05/07 11:38:19;;;;;;;11.50;9.15;;;21.30;70.10;;;;;;5056251;28;20021;-68
2023/05/07 11:40:51;;;;;;;11.65;8.38;;;21.30;70.40;;;;;;5055403;28;20074;-71
2023/05/07 11:43:17;;;;;;;13.20;9.02;;;21.30;70.50;;;;;;5053954;28;20448;-70
2023/05/07 11:45:44;;;;;;;9.15;7.80;;;21.30;69.20;;;;;;5055099;28;20048;-69
2023/05/07 11:48:28;;;;;;;11.68;8.80;;;21.30;70.50;;;;;;5054555;28;20061;-69
2023/05/07 11:51:06;;;;;;;11.65;8.65;;;21.50;69.40;;;;;;5055247;28;20082;-69
2023/05/07 11:53:42;;;;;;;11.05;8.50;;;21.60;68.80;;;;;;5055327;28;20052;-70
2023/05/07 11:56:13;;;;;;;11.50;9.18;;;21.50;68.60;;;;;;5056113;28;20037;-69
2023/05/07 11:58:40;;;;;;;11.15;8.05;;;21.50;68.50;;;;;;5055374;28;20029;-70
2023/05/07 12:01:09;;;;;;;9.63;7.50;;;21.60;69.10;;;;;;5055297;28;20032;-69
2023/05/07 12:03:37;;;;;;;10.90;8.20;;;21.70;69.80;;;;;;5054483;28;20485;-69
2023/05/07 12:06:05;;;;;;;9.50;7.43;;;21.70;68.20;;;;;;5055355;28;20029;-69
2023/05/07 12:08:30;;;;;;;8.57;7.63;;;21.60;68.60;;;;;;5055146;28;20033;-73
2023/05/07 12:10:56;;;;;;;9.43;7.43;;;21.60;68.20;;;;;;5055695;28;20493;-69
2023/05/07 12:13:23;;;;;;;11.73;7.72;;;21.60;68.20;;;;;;5055138;28;20021;-69
2023/05/07 12:15:53;;;;;;;9.40;7.82;;;21.40;68.30;;;;;;5054490;28;20025;-69
2023/05/07 12:18:19;;;;;;;8.18;7.20;;;21.30;68.60;;;;;;5054806;28;20025;-69
2023/05/07 12:20:45;;;;;;;8.40;7.45;;;21.30;69.30;;;;;;5054402;28;20111;-69
2023/05/07 12:23:11;;;;;;;8.18;7.32;;;21.20;68.60;;;;;;5054775;28;20033;-69
2023/05/07 12:25:38;;;;;;;10.88;7.40;;;21.20;69.10;;;;;;5054243;28;20036;-70
2023/05/07 12:28:05;;;;;;;7.22;6.53;;;21.20;68.90;;;;;;5054635;28;20079;-69
2023/05/07 12:30:38;;;;;;;8.57;6.93;;;21.20;69.80;;;;;;5054360;28;20027;-69
2023/05/07 12:33:04;;;;;;;9.13;7.55;;;21.30;69.50;;;;;;5054436;28;20029;-69
2023/05/07 12:35:31;;;;;;;10.73;7.45;;;21.30;69.30;;;;;;5053443;28;20032;-69